createdAt,value
2023-01-23T00:01:32.343Z,-0.86
2023-01-23T00:03:59.236Z,-0.89
2023-01-23T00:06:27.257Z,-0.96
2023-01-23T00:08:56.273Z,-0.96
2023-01-23T00:11:25.883Z,-0.95
2023-01-23T00:13:53.162Z,-0.99
2023-01-23T00:16:22.004Z,-0.98
2023-01-23T00:18:50.989Z,-0.92
2023-01-23T00:21:20.236Z,-0.89
2023-01-23T00:23:50.451Z,-0.90
2023-01-23T00:26:20.391Z,-0.90
2023-01-23T00:28:48.117Z,-0.89
2023-01-23T00:31:25.134Z,-0.81
2023-01-23T00:33:57.411Z,-0.81
2023-01-23T00:36:27.714Z,-0.82
2023-01-23T00:38:54.346Z,-0.93
2023-01-23T00:41:21.082Z,-0.81
2023-01-23T00:43:48.611Z,-0.83
2023-01-23T00:46:15.326Z,-0.74
2023-01-23T00:48:42.125Z,-0.71
2023-01-23T00:51:08.830Z,-0.70
2023-01-23T00:53:35.550Z,-0.71
2023-01-23T00:56:02.199Z,-0.73
2023-01-23T00:58:28.714Z,-0.80
2023-01-23T01:00:55.355Z,-0.75
2023-01-23T01:03:22.043Z,-0.78
2023-01-23T01:05:48.648Z,-0.80
2023-01-23T01:08:15.410Z,-0.85
2023-01-23T01:10:42.537Z,-0.80
2023-01-23T01:13:10.800Z,-0.85
2023-01-23T01:15:37.841Z,-0.82
2023-01-23T01:18:05.304Z,-0.82
2023-01-23T01:20:31.894Z,-0.72
2023-01-23T01:22:59.376Z,-0.72
2023-01-23T01:25:30.474Z,-0.76
2023-01-23T01:27:57.081Z,-0.78
2023-01-23T01:30:25.548Z,-0.85
2023-01-23T01:32:52.209Z,-0.87
2023-01-23T01:35:19.031Z,-0.79
2023-01-23T01:37:46.327Z,-0.71
2023-01-23T01:40:18.312Z,-0.80
2023-01-23T01:42:49.549Z,-0.76
2023-01-23T01:46:01.037Z,-0.77
2023-01-23T01:48:51.865Z,-0.79
2023-01-23T01:51:32.017Z,-0.97
2023-01-23T01:54:18.903Z,-0.75
2023-01-23T01:56:52.043Z,-0.96
2023-01-23T01:59:23.268Z,-0.86
2023-01-23T02:01:56.816Z,-0.79
2023-01-23T02:04:23.936Z,-0.75
2023-01-23T02:06:52.722Z,-0.71
2023-01-23T02:09:26.159Z,-0.79
2023-01-23T02:11:52.779Z,-0.70
2023-01-23T02:14:20.306Z,-0.69
2023-01-23T02:16:51.170Z,-0.73
2023-01-23T02:19:27.411Z,-0.69
2023-01-23T02:22:04.515Z,-0.73
2023-01-23T02:24:49.282Z,-0.72
2023-01-23T02:27:15.983Z,-0.80
2023-01-23T02:29:45.832Z,-0.76
2023-01-23T02:32:12.424Z,-0.77
2023-01-23T02:34:39.275Z,-0.81
2023-01-23T02:37:08.555Z,-0.92
2023-01-23T02:39:35.198Z,-0.81
2023-01-23T02:42:02.759Z,-0.77
2023-01-23T02:44:34.468Z,-0.73
2023-01-23T02:47:05.297Z,-0.77
2023-01-23T02:49:31.822Z,-0.70
2023-01-23T02:51:58.442Z,-0.66
2023-01-23T02:54:25.754Z,-0.70
2023-01-23T02:56:52.449Z,-0.61
2023-01-23T02:59:37.711Z,-0.58
2023-01-23T03:02:06.269Z,-0.74
2023-01-23T03:04:33.148Z,-0.71
2023-01-23T03:06:59.869Z,-0.73
2023-01-23T03:09:26.843Z,-0.74
2023-01-23T03:11:53.545Z,-0.74
2023-01-23T03:14:23.430Z,-0.77
2023-01-23T03:16:51.429Z,-0.76
2023-01-23T03:19:20.633Z,-0.73
2023-01-23T03:21:47.482Z,-0.88
2023-01-23T03:24:15.318Z,-0.70
2023-01-23T03:26:44.418Z,-0.72
2023-01-23T03:29:41.724Z,-0.72
2023-01-23T03:32:10.808Z,-0.77
2023-01-23T03:34:38.280Z,-0.73
2023-01-23T03:37:08.097Z,-0.71
2023-01-23T03:39:53.599Z,-0.71
2023-01-23T03:42:20.635Z,-0.77
2023-01-23T03:44:47.663Z,-0.80
2023-01-23T03:47:14.407Z,-0.89
2023-01-23T03:49:42.075Z,-0.84
2023-01-23T03:52:09.742Z,-0.87
2023-01-23T03:54:37.103Z,-0.85
2023-01-23T03:57:03.866Z,-0.89
2023-01-23T03:59:30.385Z,-0.84
2023-01-23T04:01:58.114Z,-0.78
2023-01-23T04:04:24.910Z,-0.77
2023-01-23T04:06:51.465Z,-0.75
2023-01-23T04:09:18.263Z,-0.73
2023-01-23T04:11:51.931Z,-0.74
2023-01-23T04:14:18.529Z,-0.88
2023-01-23T04:16:45.083Z,-0.77
2023-01-23T04:19:11.806Z,-0.75
2023-01-23T04:21:39.891Z,-0.88
2023-01-23T04:24:06.872Z,-0.68
2023-01-23T04:26:35.255Z,-0.72
2023-01-23T04:29:02.079Z,-0.72
2023-01-23T04:31:28.733Z,-0.81
2023-01-23T04:33:55.571Z,-0.83
2023-01-23T04:36:22.378Z,-0.87
2023-01-23T04:38:49.156Z,-0.81
2023-01-23T04:41:24.586Z,-0.86
2023-01-23T04:43:51.353Z,-0.87
2023-01-23T04:46:17.971Z,-0.85
2023-01-23T04:48:47.351Z,-0.86
2023-01-23T04:51:15.358Z,-0.86
2023-01-23T04:53:42.012Z,-0.85
2023-01-23T04:56:08.658Z,-0.90
2023-01-23T04:58:35.518Z,-0.88
2023-01-23T05:01:04.261Z,-0.94
2023-01-23T05:03:31.031Z,-1.00
2023-01-23T05:05:57.748Z,-0.95
2023-01-23T05:08:24.375Z,-0.88
2023-01-23T05:10:51.059Z,-0.88
2023-01-23T05:13:17.640Z,-0.93
2023-01-23T05:15:50.239Z,-0.87
2023-01-23T05:18:17.955Z,-0.87
2023-01-23T05:20:44.540Z,-0.88
2023-01-23T05:23:11.215Z,-0.84
2023-01-23T05:25:37.922Z,-0.80
2023-01-23T05:28:04.686Z,-0.76
2023-01-23T05:30:31.511Z,-0.71
2023-01-23T05:32:58.353Z,-0.71
2023-01-23T05:35:24.925Z,-0.75
2023-01-23T05:37:52.644Z,-0.77
2023-01-23T05:40:20.866Z,-0.75
2023-01-23T05:42:48.164Z,-0.78
2023-01-23T05:45:15.658Z,-0.75
2023-01-23T05:47:43.130Z,-0.74
2023-01-23T05:50:14.815Z,-0.70
2023-01-23T05:52:41.521Z,-0.68
2023-01-23T05:55:08.324Z,-0.75
2023-01-23T05:57:35.601Z,-0.74
2023-01-23T06:00:02.345Z,-0.72
2023-01-23T06:02:28.901Z,-0.65
2023-01-23T06:04:55.893Z,-0.65
2023-01-23T06:07:22.459Z,-0.70
2023-01-23T06:09:49.036Z,-0.73
2023-01-23T06:12:15.821Z,-0.77
2023-01-23T06:14:42.437Z,-0.77
2023-01-23T06:17:15.488Z,-0.79
2023-01-23T06:19:42.758Z,-0.82
2023-01-23T06:22:09.367Z,-0.79
2023-01-23T06:24:36.002Z,-0.81
2023-01-23T06:27:04.447Z,-0.75
2023-01-23T06:29:32.068Z,-0.82
2023-01-23T06:31:58.746Z,-0.89
2023-01-23T06:34:25.287Z,-0.84
2023-01-23T06:36:52.053Z,-0.87
2023-01-23T06:39:18.695Z,-0.90
2023-01-23T06:41:45.327Z,-0.85
2023-01-23T06:44:12.135Z,-0.85
2023-01-23T06:46:39.019Z,-0.85
2023-01-23T06:49:06.473Z,-0.86
2023-01-23T06:51:34.069Z,-0.88
2023-01-23T06:54:00.819Z,-0.89
2023-01-23T06:56:27.479Z,-0.94
2023-01-23T06:58:54.232Z,-0.95
2023-01-23T07:01:21.130Z,-0.90
2023-01-23T07:03:47.814Z,-0.79
2023-01-23T07:06:15.471Z,-0.76
2023-01-23T07:08:42.632Z,-0.68
2023-01-23T07:11:10.050Z,-0.78
2023-01-23T07:13:36.905Z,-0.77
2023-01-23T07:16:04.053Z,-0.84
2023-01-23T07:18:30.763Z,-0.79
2023-01-23T07:20:57.749Z,-0.75
2023-01-23T07:23:24.437Z,-0.72
2023-01-23T07:25:51.225Z,-0.87
2023-01-23T07:28:17.871Z,-0.65
2023-01-23T07:30:44.599Z,-0.69
2023-01-23T07:33:12.282Z,-0.63
2023-01-23T07:35:39.944Z,-0.61
2023-01-23T07:38:06.541Z,-0.89
2023-01-23T07:40:33.161Z,-0.53
2023-01-23T07:43:01.776Z,-0.52
2023-01-23T07:45:30.549Z,-0.59
2023-01-23T07:47:57.186Z,-0.57
2023-01-23T07:50:23.824Z,-0.49
2023-01-23T07:52:50.523Z,-0.47
2023-01-23T07:55:17.089Z,-0.44
2023-01-23T07:57:46.110Z,-0.46
2023-01-23T08:00:13.186Z,-0.49
2023-01-23T08:02:39.887Z,-0.50
2023-01-23T08:05:07.930Z,-0.69
2023-01-23T08:07:34.698Z,-0.48
2023-01-23T08:10:01.308Z,-0.39
2023-01-23T08:12:27.920Z,-0.33
2023-01-23T08:14:54.605Z,-0.37
2023-01-23T08:17:21.312Z,-0.36
2023-01-23T08:19:48.881Z,-0.40
2023-01-23T08:22:15.838Z,-0.38
2023-01-23T08:24:43.535Z,-0.49
2023-01-23T08:27:12.224Z,-0.37
2023-01-23T08:29:38.909Z,-0.42
2023-01-23T08:32:06.049Z,-0.38
2023-01-23T08:34:32.834Z,-0.37
2023-01-23T08:36:59.620Z,-0.34
2023-01-23T08:39:26.463Z,-0.33
2023-01-23T08:41:53.224Z,-0.32
2023-01-23T08:44:19.930Z,-0.35
2023-01-23T08:46:47.288Z,-0.35
2023-01-23T08:49:14.256Z,-0.28
2023-01-23T08:51:40.943Z,-0.18
2023-01-23T08:54:07.740Z,-0.10
2023-01-23T08:56:34.340Z,-0.16
2023-01-23T08:59:01.215Z,-0.20
2023-01-23T09:01:28.215Z,-0.26
2023-01-23T09:03:55.284Z,-0.22
2023-01-23T09:06:23.270Z,-0.16
2023-01-23T09:08:50.169Z,-0.18
2023-01-23T09:11:17.956Z,-0.10
2023-01-23T09:13:46.710Z,-0.21
2023-01-23T09:16:13.320Z,-0.15
2023-01-23T09:18:40.117Z,-0.18
2023-01-23T09:21:08.903Z,-0.27
2023-01-23T09:23:35.902Z,-0.32
2023-01-23T09:26:11.177Z,-0.24
2023-01-23T09:28:40.128Z,-0.21
2023-01-23T09:31:08.367Z,-0.12
2023-01-23T09:33:35.676Z,-0.24
2023-01-23T09:36:03.191Z,-0.12
2023-01-23T09:38:30.756Z,-0.20
2023-01-23T09:40:59.105Z,-0.21
2023-01-23T09:43:40.413Z,-0.19
2023-01-23T09:46:26.323Z,-0.15
2023-01-23T09:49:17.173Z,-0.08
2023-01-23T09:51:51.108Z,-0.16
2023-01-23T09:54:44.596Z,-0.09
2023-01-23T09:57:19.419Z,-0.11
2023-01-23T10:00:06.746Z,-0.18
2023-01-23T10:02:34.253Z,-0.23
2023-01-23T10:05:03.050Z,-0.17
2023-01-23T10:08:03.605Z,-0.14
2023-01-23T10:10:45.138Z,-0.17
2023-01-23T10:13:38.079Z,-0.15
2023-01-23T10:16:54.110Z,-0.16
2023-01-23T10:19:29.568Z,-0.13
2023-01-23T10:22:04.143Z,-0.16
2023-01-23T10:24:40.853Z,-0.17
2023-01-23T10:27:23.468Z,-0.14
2023-01-23T10:29:57.874Z,-0.17
2023-01-23T10:32:27.427Z,-0.11
2023-01-23T10:34:58.513Z,-0.18
2023-01-23T10:37:48.631Z,-0.07
2023-01-23T10:40:43.068Z,-0.05
2023-01-23T10:43:17.101Z,0.01
2023-01-23T10:45:46.310Z,-0.07
2023-01-23T10:48:28.404Z,-0.12
2023-01-23T10:50:55.593Z,-0.06
2023-01-23T10:53:22.819Z,-0.04
2023-01-23T10:55:51.832Z,0.01
2023-01-23T10:58:39.360Z,0.16
2023-01-23T11:01:23.899Z,0.15
2023-01-23T11:03:50.519Z,0.06
2023-01-23T11:06:19.127Z,0.10
2023-01-23T11:09:02.803Z,0.14
2023-01-23T11:11:32.488Z,0.22
2023-01-23T11:14:14.522Z,0.30
2023-01-23T11:16:42.778Z,0.27
2023-01-23T11:19:09.361Z,0.28
2023-01-23T11:21:39.161Z,0.29
2023-01-23T11:24:08.540Z,0.32
2023-01-23T11:26:38.453Z,0.33
2023-01-23T11:29:21.457Z,0.23
2023-01-23T11:32:04.244Z,0.21
2023-01-23T11:34:41.467Z,0.25
2023-01-23T11:37:16.968Z,0.20
2023-01-23T11:39:49.505Z,0.29
2023-01-23T11:42:17.255Z,0.11
2023-01-23T11:44:46.660Z,0.26
2023-01-23T11:47:46.845Z,0.20
2023-01-23T11:50:29.630Z,0.23
2023-01-23T11:53:05.330Z,0.26
2023-01-23T11:56:06.621Z,0.24
2023-01-23T11:59:03.559Z,0.26
2023-01-23T12:02:20.584Z,0.28
2023-01-23T12:04:55.821Z,0.30
2023-01-23T12:07:25.292Z,0.22
2023-01-23T12:10:26.745Z,0.20
2023-01-23T12:13:05.553Z,0.14
2023-01-23T12:15:41.071Z,0.12
2023-01-23T12:18:21.834Z,0.06
2023-01-23T12:21:19.443Z,0.14
2023-01-23T12:24:14.032Z,0.15
2023-01-23T12:26:57.071Z,0.17
2023-01-23T12:29:30.279Z,0.13
2023-01-23T12:32:27.694Z,0.09
2023-01-23T12:35:02.101Z,0.09
2023-01-23T12:37:46.385Z,0.08
2023-01-23T12:40:42.024Z,-0.03
2023-01-23T12:43:21.665Z,-0.09
2023-01-23T12:45:56.926Z,-0.11
2023-01-23T12:48:49.427Z,-0.13
2023-01-23T12:51:34.881Z,-0.18
2023-01-23T12:54:07.173Z,-0.19
2023-01-23T12:56:40.035Z,-0.41
2023-01-23T12:59:25.227Z,-0.23
2023-01-23T13:02:15.230Z,-0.23
2023-01-23T13:05:02.885Z,-0.23
2023-01-23T13:07:31.587Z,-0.19
2023-01-23T13:10:06.960Z,-0.18
2023-01-23T13:12:36.061Z,-0.14
2023-01-23T13:15:22.734Z,-0.16
2023-01-23T13:17:57.197Z,-0.13
2023-01-23T13:20:43.178Z,-0.10
2023-01-23T13:23:28.195Z,-0.07
2023-01-23T13:26:16.907Z,0.05
2023-01-23T13:28:48.737Z,-0.02
2023-01-23T13:31:47.431Z,0.02
2023-01-23T13:34:20.408Z,-0.02
2023-01-23T13:36:52.511Z,-0.08
2023-01-23T13:39:25.713Z,-0.02
2023-01-23T13:42:12.891Z,-0.07
2023-01-23T13:45:16.896Z,-0.09
2023-01-23T14:20:25.185Z,-0.28
2023-01-23T14:22:55.270Z,-0.29
2023-01-23T14:25:22.613Z,-0.35
2023-01-23T14:27:54.672Z,-0.37
2023-01-23T14:30:27.278Z,-0.41
2023-01-23T14:32:54.391Z,-0.41
2023-01-23T14:35:28.467Z,-0.39
2023-01-23T14:37:58.925Z,-0.44
2023-01-23T14:40:35.051Z,-0.35
2023-01-23T14:43:09.006Z,-0.39
2023-01-23T14:45:37.352Z,-0.36
2023-01-23T14:48:14.193Z,-0.44
2023-01-23T14:50:44.027Z,-0.41
2023-01-23T14:53:15.945Z,-0.41
2023-01-23T14:55:49.778Z,-0.42
2023-01-23T14:58:25.266Z,-0.47
2023-01-23T15:00:53.791Z,-0.40
2023-01-23T15:03:42.823Z,-0.43
2023-01-23T15:06:31.078Z,-0.45
2023-01-23T15:09:17.211Z,-0.54
2023-01-23T15:11:45.123Z,-0.52
2023-01-23T15:14:26.164Z,-0.64
2023-01-23T15:17:06.266Z,-0.66
2023-01-23T15:19:37.723Z,-0.81
2023-01-23T15:22:22.286Z,-0.70
2023-01-23T15:24:49.035Z,-0.88
2023-01-23T15:27:28.015Z,-0.68
2023-01-23T15:30:30.138Z,-0.67
2023-01-23T15:32:58.389Z,-0.73
2023-01-23T15:35:25.406Z,-0.67
2023-01-23T15:37:59.655Z,-0.67
2023-01-23T15:40:28.179Z,-0.62
2023-01-23T15:43:11.110Z,-0.63
2023-01-23T15:45:38.236Z,-0.68
2023-01-23T15:48:05.287Z,-0.69
2023-01-23T15:50:32.211Z,-0.67
2023-01-23T15:52:58.846Z,-0.64
2023-01-23T15:55:26.893Z,-0.57
2023-01-23T15:57:54.239Z,-0.56
2023-01-23T16:00:26.967Z,-0.59
2023-01-23T16:02:57.352Z,-0.69
2023-01-23T16:05:25.846Z,-0.64
2023-01-23T16:07:53.656Z,-0.73
2023-01-23T16:10:23.173Z,-0.70
2023-01-23T16:12:53.000Z,-0.63
2023-01-23T16:15:28.977Z,-0.64
2023-01-23T16:17:56.258Z,-0.65
2023-01-23T16:20:35.515Z,-0.68
2023-01-23T16:23:15.245Z,-0.69
2023-01-23T16:25:45.450Z,-0.67
2023-01-23T16:28:32.540Z,-0.67
2023-01-23T16:30:59.239Z,-0.58
2023-01-23T16:33:25.995Z,-0.65
2023-01-23T16:35:52.801Z,-0.65
2023-01-23T16:38:28.912Z,-0.64
2023-01-23T16:40:56.859Z,-0.64
2023-01-23T16:43:23.776Z,-0.58
2023-01-23T16:45:54.266Z,-0.60
2023-01-23T16:48:27.233Z,-0.57
2023-01-23T16:50:59.329Z,-0.53
2023-01-23T16:53:39.371Z,-0.60
2023-01-23T16:56:06.881Z,-0.56
2023-01-23T16:58:39.752Z,-0.56
2023-01-23T17:01:17.955Z,-0.57
2023-01-23T17:03:44.965Z,-0.54
2023-01-23T17:06:14.544Z,-0.54
2023-01-23T17:08:41.728Z,-0.54
2023-01-23T17:11:08.905Z,-0.55
2023-01-23T17:13:36.077Z,-0.60
2023-01-23T17:16:26.822Z,-0.62
2023-01-23T17:18:57.066Z,-0.55
2023-01-23T17:21:27.824Z,-0.56
2023-01-23T17:23:54.417Z,-0.54
2023-01-23T17:26:21.088Z,-0.57
2023-01-23T17:28:47.905Z,-0.62
2023-01-23T17:31:20.650Z,-0.60
2023-01-23T17:33:48.059Z,-0.58
2023-01-23T17:36:15.856Z,-0.58
2023-01-23T17:38:42.751Z,-0.57
2023-01-23T17:41:16.004Z,-0.59
2023-01-23T17:43:44.955Z,-0.52
2023-01-23T17:46:26.972Z,-0.54
2023-01-23T17:48:55.802Z,-0.59
2023-01-23T17:51:23.842Z,-0.49
2023-01-23T17:53:51.212Z,-0.49
2023-01-23T17:56:18.416Z,-0.52
2023-01-23T17:58:45.355Z,-0.52
2023-01-23T18:01:22.363Z,-0.68
2023-01-23T18:03:51.321Z,-0.52
2023-01-23T18:06:19.194Z,-0.51
2023-01-23T18:08:46.644Z,-0.51
2023-01-23T18:11:36.097Z,-0.50
2023-01-23T18:14:30.176Z,-0.50
2023-01-23T18:16:56.764Z,-0.51
2023-01-23T18:19:25.572Z,-0.48
2023-01-23T18:21:54.994Z,-0.45
2023-01-23T18:24:33.066Z,-0.49
2023-01-23T18:27:11.847Z,-0.48
2023-01-23T18:30:01.586Z,-0.67
2023-01-23T18:32:46.871Z,-0.46
2023-01-23T18:35:25.721Z,-0.43
2023-01-23T18:37:56.611Z,-0.45
2023-01-23T18:40:37.450Z,-0.45
2023-01-23T18:43:31.823Z,-0.44
2023-01-23T18:45:58.664Z,-0.46
2023-01-23T18:48:26.092Z,-0.52
2023-01-23T18:51:27.814Z,-0.52
2023-01-23T18:54:00.035Z,-0.47
2023-01-23T18:56:37.703Z,-0.48
2023-01-23T18:59:39.740Z,-0.56
2023-01-23T19:02:40.658Z,-0.53
2023-01-23T19:05:16.864Z,-0.51
2023-01-23T19:07:45.178Z,-0.53
2023-01-23T19:10:14.593Z,-0.53
2023-01-23T19:12:53.077Z,-0.55
2023-01-23T19:15:23.170Z,-0.52
2023-01-23T19:18:03.555Z,-0.54
2023-01-23T19:20:34.292Z,-0.47
2023-01-23T19:23:07.816Z,-0.48
2023-01-23T19:25:34.513Z,-0.56
2023-01-23T19:28:02.734Z,-0.53
2023-01-23T19:30:29.715Z,-0.60
2023-01-23T19:32:56.323Z,-0.65
2023-01-23T19:35:23.016Z,-0.49
2023-01-23T19:37:49.976Z,-0.49
2023-01-23T19:40:18.068Z,-0.50
2023-01-23T19:42:56.392Z,-0.51
2023-01-23T19:45:28.233Z,-0.53
2023-01-23T19:47:54.963Z,-0.56
2023-01-23T19:50:22.393Z,-0.56
2023-01-23T19:52:50.000Z,-0.57
2023-01-23T19:55:29.023Z,-0.55
2023-01-23T19:57:59.112Z,-0.59
2023-01-23T20:00:27.926Z,-0.61
2023-01-23T20:02:54.622Z,-0.62
2023-01-23T20:05:22.972Z,-0.63
2023-01-23T20:07:50.102Z,-0.61
2023-01-23T20:10:18.887Z,-0.64
2023-01-23T20:12:52.319Z,-0.65
2023-01-23T20:15:22.401Z,-0.60
2023-01-23T20:17:49.876Z,-0.68
2023-01-23T20:20:16.915Z,-0.85
2023-01-23T20:22:44.176Z,-0.66
2023-01-23T20:25:14.284Z,-0.68
2023-01-23T20:27:41.934Z,-0.65
2023-01-23T20:30:20.140Z,-0.64
2023-01-23T20:32:46.955Z,-0.71
2023-01-23T20:35:13.566Z,-0.57
2023-01-23T20:37:40.320Z,-0.63
2023-01-23T20:40:11.595Z,-0.67
2023-01-23T20:42:38.767Z,-0.60
2023-01-23T20:45:06.232Z,-0.71
2023-01-23T20:47:35.727Z,-0.54
2023-01-23T20:50:02.572Z,-0.54
2023-01-23T20:52:47.799Z,-0.62
2023-01-23T20:55:14.500Z,-0.68
2023-01-23T20:57:59.664Z,-0.69
2023-01-23T21:00:26.950Z,-0.65
2023-01-23T21:02:53.630Z,-0.57
2023-01-23T21:05:20.621Z,-0.63
2023-01-23T21:07:47.314Z,-0.62
2023-01-23T21:10:13.959Z,-0.61
2023-01-23T21:12:40.583Z,-0.66
2023-01-23T21:15:07.834Z,-0.68
2023-01-23T21:17:34.523Z,-0.65
2023-01-23T21:20:02.163Z,-0.78
2023-01-23T21:22:28.807Z,-0.65
2023-01-23T21:24:55.461Z,-0.63
2023-01-23T21:27:25.093Z,-0.60
2023-01-23T21:29:51.890Z,-0.56
2023-01-23T21:32:18.821Z,-0.61
2023-01-23T21:34:45.401Z,-0.60
2023-01-23T21:37:11.944Z,-0.55
2023-01-23T21:39:39.476Z,-0.60
2023-01-23T21:42:06.034Z,-0.52
2023-01-23T21:44:34.638Z,-0.53
2023-01-23T21:47:02.907Z,-0.51
2023-01-23T21:49:31.524Z,-0.51
2023-01-23T21:51:58.119Z,-0.53
2023-01-23T21:54:24.878Z,-0.56
2023-01-23T21:56:51.494Z,-0.53
2023-01-23T21:59:18.312Z,-0.59
2023-01-23T22:01:46.505Z,-0.62
2023-01-23T22:04:18.391Z,-0.58
2023-01-23T22:06:46.669Z,-0.60
2023-01-23T22:09:18.119Z,-0.64
2023-01-23T22:11:45.424Z,-0.66
2023-01-23T22:14:12.416Z,-0.63
2023-01-23T22:16:54.600Z,-0.62
2023-01-23T22:19:25.518Z,-0.65
2023-01-23T22:21:54.575Z,-0.68
2023-01-23T22:24:21.468Z,-0.62
2023-01-23T22:26:48.030Z,-0.64
2023-01-23T22:29:15.200Z,-0.70
2023-01-23T22:31:42.720Z,-0.62
2023-01-23T22:34:09.891Z,-0.64
2023-01-23T22:36:36.523Z,-0.57
2023-01-23T22:39:14.050Z,-0.54
2023-01-23T22:41:40.555Z,-0.55
2023-01-23T22:44:07.132Z,-0.61
2023-01-23T22:46:33.819Z,-0.56
2023-01-23T22:49:00.515Z,-0.58
2023-01-23T22:51:29.014Z,-0.56
2023-01-23T22:53:57.450Z,-0.52
2023-01-23T22:56:26.063Z,-0.44
2023-01-23T22:58:55.731Z,-0.49
2023-01-23T23:01:23.799Z,-0.51
2023-01-23T23:03:51.501Z,-0.52
2023-01-23T23:06:19.652Z,-0.49
2023-01-23T23:08:47.830Z,-0.51
2023-01-23T23:11:18.518Z,-0.52
2023-01-23T23:13:46.023Z,-0.51
2023-01-23T23:16:24.807Z,-0.54
2023-01-23T23:18:53.235Z,-0.51
2023-01-23T23:21:23.568Z,-0.51
2023-01-23T23:23:50.770Z,-0.47
2023-01-23T23:26:20.226Z,-0.59
2023-01-23T23:28:46.796Z,-0.46
2023-01-23T23:31:14.055Z,-0.42
2023-01-23T23:33:40.733Z,-0.42
2023-01-23T23:36:07.913Z,-0.43
2023-01-23T23:38:34.686Z,-0.43
2023-01-23T23:41:04.063Z,-0.45
2023-01-23T23:43:31.037Z,-0.46
2023-01-23T23:46:00.684Z,-0.49
2023-01-23T23:48:28.269Z,-0.52
2023-01-23T23:50:55.607Z,-0.49
2023-01-23T23:53:22.837Z,-0.51
2023-01-23T23:55:49.559Z,-0.50
2023-01-23T23:58:16.344Z,-0.47
